Time;durP1;ratioP1;P1;durP2;ratioP2;P2;SDS_P1;SDS_P2;PMS_P1;PMS_P2;Temp;Humidity;BMP_temperature;BMP_pressure;BME280_temperature;BME280_humidity;BME280_pressure;Samples;Min_cycle;Max_cycle;Signal;HPM_P1;HPM_P2
2023/09/21 00:00:24;;;;;;;3.00;0.90;;;22.30;99.90;;;;;;5048254;28;20209;-75
2023/09/21 00:02:56;;;;;;;2.08;0.80;;;22.40;99.90;;;;;;5033427;28;20289;-77
2023/09/21 00:05:31;;;;;;;2.25;0.73;;;22.50;99.90;;;;;;5052128;28;20230;-75
2023/09/21 00:08:05;;;;;;;5.50;0.90;;;22.50;99.90;;;;;;5038988;28;20202;-75
2023/09/21 00:10:35;;;;;;;2.28;0.60;;;22.40;99.90;;;;;;5035149;28;20218;-75
2023/09/21 00:13:06;;;;;;;3.08;0.93;;;22.50;99.90;;;;;;5040921;28;20271;-75
2023/09/21 00:15:39;;;;;;;4.35;0.77;;;22.60;99.90;;;;;;5037459;28;20209;-75
2023/09/21 00:18:10;;;;;;;2.47;0.80;;;22.70;99.90;;;;;;5043065;28;20201;-76
2023/09/21 00:20:51;;;;;;;1.42;0.50;;;22.80;99.90;;;;;;5034706;28;20290;-75
2023/09/21 00:23:23;;;;;;;1.30;0.60;;;22.90;99.90;;;;;;5047440;28;20628;-75
2023/09/21 00:25:57;;;;;;;1.60;0.77;;;23.00;99.90;;;;;;5046854;28;20219;-74
2023/09/21 00:28:28;;;;;;;1.95;0.60;;;23.20;99.90;;;;;;5043959;28;20738;-78
2023/09/21 00:31:02;;;;;;;2.10;0.70;;;23.30;99.90;;;;;;5052802;28;20259;-75
2023/09/21 00:33:35;;;;;;;4.93;1.00;;;23.30;99.90;;;;;;5045383;28;20635;-75
2023/09/21 00:36:09;;;;;;;2.33;0.95;;;23.30;99.90;;;;;;5034482;28;20277;-75
2023/09/21 00:38:39;;;;;;;1.90;0.73;;;23.40;99.90;;;;;;5049560;28;20193;-76
2023/09/21 00:41:10;;;;;;;1.80;0.90;;;23.50;99.90;;;;;;5048937;28;20212;-77
2023/09/21 00:43:41;;;;;;;3.47;0.93;;;23.60;99.90;;;;;;5049446;28;20194;-78
2023/09/21 00:46:21;;;;;;;2.03;0.70;;;23.70;99.90;;;;;;5047972;28;20197;-78
2023/09/21 00:48:52;;;;;;;3.05;0.88;;;23.80;99.90;;;;;;5041913;28;20194;-76
2023/09/21 00:51:23;;;;;;;1.52;0.70;;;24.00;99.90;;;;;;5032515;28;20222;-77
2023/09/21 00:53:54;;;;;;;1.73;0.73;;;24.10;99.90;;;;;;5043322;28;20228;-76
2023/09/21 00:56:27;;;;;;;3.50;0.88;;;24.00;99.90;;;;;;5040443;28;20213;-76
2023/09/21 00:59:00;;;;;;;5.05;0.93;;;24.00;99.90;;;;;;5045679;28;20284;-77
2023/09/21 01:01:34;;;;;;;8.35;1.25;;;24.00;99.90;;;;;;5053065;28;20208;-79
2023/09/21 01:04:06;;;;;;;8.27;1.20;;;23.90;99.90;;;;;;5049148;28;20205;-75
2023/09/21 01:06:37;;;;;;;10.95;1.42;;;23.40;99.90;;;;;;5039733;28;20256;-76
2023/09/21 01:09:13;;;;;;;8.50;1.50;;;22.90;99.90;;;;;;5035205;28;20209;-74
2023/09/21 01:11:44;;;;;;;7.43;1.30;;;22.70;99.90;;;;;;5037049;28;20221;-75
2023/09/21 01:14:15;;;;;;;7.47;1.60;;;22.50;99.90;;;;;;5051719;28;20198;-75
2023/09/21 01:16:48;;;;;;;5.20;1.25;;;22.70;99.90;;;;;;5035572;28;20209;-73
2023/09/21 01:19:22;;;;;;;6.35;1.40;;;22.80;99.90;;;;;;5031414;28;20194;-77
2023/09/21 01:21:54;;;;;;;7.13;1.33;;;22.70;99.90;;;;;;5032335;28;20194;-76
2023/09/21 01:24:27;;;;;;;7.82;1.50;;;22.50;99.90;;;;;;5038770;28;20235;-76
2023/09/21 01:26:58;;;;;;;5.63;0.93;;;22.50;99.90;;;;;;5051356;28;20195;-76
2023/09/21 01:29:31;;;;;;;5.43;1.48;;;22.60;99.90;;;;;;5052232;28;20208;-75
2023/09/21 01:32:03;;;;;;;4.38;1.10;;;22.70;99.90;;;;;;5042388;28;20210;-76
2023/09/21 01:34:36;;;;;;;5.38;1.10;;;22.70;99.90;;;;;;5036541;28;20260;-75
2023/09/21 01:37:07;;;;;;;4.63;0.82;;;22.70;99.90;;;;;;5046053;28;20198;-74
2023/09/21 01:39:39;;;;;;;6.78;0.90;;;22.50;99.90;;;;;;5035673;28;20272;-76
2023/09/21 01:42:11;;;;;;;7.30;1.48;;;22.50;99.90;;;;;;5035890;28;20236;-76
2023/09/21 01:44:42;;;;;;;6.03;1.10;;;22.40;99.90;;;;;;5037502;28;20589;-76
2023/09/21 01:47:13;;;;;;;4.57;0.88;;;22.40;99.90;;;;;;5056461;28;20228;-75
2023/09/21 01:49:44;;;;;;;6.25;0.90;;;22.20;99.90;;;;;;5052655;28;20279;-76
2023/09/21 01:52:15;;;;;;;5.35;1.00;;;22.30;99.90;;;;;;5038576;28;20229;-76
2023/09/21 01:54:47;;;;;;;4.05;0.75;;;22.40;99.90;;;;;;5044561;28;20292;-76
2023/09/21 01:57:18;;;;;;;4.70;0.75;;;22.40;99.90;;;;;;5054567;28;20197;-76
2023/09/21 01:59:49;;;;;;;4.30;1.13;;;22.30;99.90;;;;;;5049348;28;20224;-75
2023/09/21 02:02:20;;;;;;;4.38;0.80;;;22.10;99.90;;;;;;5036643;28;20202;-76
2023/09/21 02:04:51;;;;;;;3.50;0.98;;;22.00;99.90;;;;;;5055167;28;20285;-77
2023/09/21 02:07:22;;;;;;;5.93;0.85;;;21.60;99.90;;;;;;5036071;28;20194;-74
2023/09/21 02:09:56;;;;;;;4.43;0.88;;;21.50;99.90;;;;;;5029017;28;20199;-76
2023/09/21 02:12:27;;;;;;;10.10;2.00;;;21.70;99.90;;;;;;5019361;28;20301;-75
2023/09/21 02:14:58;;;;;;;3.97;1.50;;;21.70;99.90;;;;;;5025448;28;20199;-75
2023/09/21 02:17:29;;;;;;;7.28;1.40;;;21.40;99.90;;;;;;5015693;28;20622;-75
2023/09/21 02:20:00;;;;;;;6.80;1.30;;;21.40;99.90;;;;;;5015609;28;20202;-75
2023/09/21 02:22:31;;;;;;;7.88;1.27;;;21.50;99.90;;;;;;5023576;28;20201;-75
2023/09/21 02:25:05;;;;;;;6.75;1.00;;;21.40;99.90;;;;;;5017591;28;20639;-74
2023/09/21 02:27:36;;;;;;;4.70;1.10;;;21.40;99.90;;;;;;5031034;28;20198;-76
2023/09/21 02:30:08;;;;;;;7.72;1.30;;;21.40;99.90;;;;;;5025964;28;20714;-76
2023/09/21 02:32:39;;;;;;;6.60;1.30;;;21.40;99.90;;;;;;5016971;28;20286;-74
2023/09/21 02:35:13;;;;;;;5.90;1.30;;;21.40;99.90;;;;;;5025195;28;20190;-75
2023/09/21 02:37:46;;;;;;;4.53;0.98;;;21.40;99.90;;;;;;5020046;28;20725;-74
2023/09/21 02:40:20;;;;;;;7.57;1.63;;;21.40;99.90;;;;;;5027942;28;20197;-76
2023/09/21 02:42:52;;;;;;;8.70;1.10;;;21.40;99.90;;;;;;5034964;28;20531;-76
2023/09/21 02:45:24;;;;;;;6.75;1.20;;;21.20;99.90;;;;;;5021561;28;20187;-75
2023/09/21 02:47:59;;;;;;;5.15;0.98;;;21.10;99.90;;;;;;5015685;28;20194;-75
2023/09/21 02:50:31;;;;;;;9.05;1.40;;;20.90;99.90;;;;;;5024215;28;20202;-75
2023/09/21 02:53:06;;;;;;;4.00;1.13;;;21.10;99.90;;;;;;5016685;28;20310;-75
2023/09/21 02:55:39;;;;;;;7.63;1.35;;;21.10;99.90;;;;;;5015565;28;20234;-75
2023/09/21 02:58:12;;;;;;;6.75;1.13;;;21.10;99.90;;;;;;5021877;28;20198;-75
2023/09/21 03:00:44;;;;;;;6.05;1.38;;;21.00;99.90;;;;;;5030064;28;20187;-76
2023/09/21 03:03:16;;;;;;;6.53;1.30;;;20.90;99.90;;;;;;5018422;28;20203;-75
2023/09/21 03:05:48;;;;;;;5.55;1.13;;;21.00;99.90;;;;;;5040580;28;20271;-76
2023/09/21 03:08:20;;;;;;;7.93;1.40;;;21.10;99.90;;;;;;5048346;28;20392;-75
2023/09/21 03:10:54;;;;;;;9.60;1.30;;;20.90;99.90;;;;;;5054657;28;20189;-75
2023/09/21 03:13:25;;;;;;;8.70;1.10;;;20.90;99.90;;;;;;5054762;28;20224;-75
2023/09/21 03:15:58;;;;;;;4.75;1.38;;;20.80;99.90;;;;;;5046279;28;20277;-75
2023/09/21 03:18:29;;;;;;;6.78;1.65;;;20.80;99.90;;;;;;5044619;28;20202;-75
2023/09/21 03:20:59;;;;;;;3.28;1.20;;;20.80;99.90;;;;;;5036785;28;20603;-75
2023/09/21 03:23:31;;;;;;;7.90;1.30;;;21.00;99.90;;;;;;5047610;28;20670;-75
2023/09/21 03:26:04;;;;;;;5.20;1.30;;;21.00;99.90;;;;;;5041755;28;20289;-74
2023/09/21 03:28:37;;;;;;;13.93;1.67;;;21.00;99.90;;;;;;5045151;28;20195;-75
2023/09/21 03:31:08;;;;;;;7.75;1.42;;;20.90;99.90;;;;;;5044753;28;20197;-76
2023/09/21 03:33:39;;;;;;;6.63;1.40;;;21.00;99.90;;;;;;5043308;28;20289;-75
2023/09/21 03:36:13;;;;;;;8.45;1.50;;;20.90;99.90;;;;;;5033954;28;20202;-76
2023/09/21 03:38:44;;;;;;;8.50;1.40;;;20.90;99.90;;;;;;5033302;28;20193;-75
2023/09/21 03:41:17;;;;;;;10.63;1.70;;;20.90;99.90;;;;;;5035786;28;20675;-75
2023/09/21 03:43:49;;;;;;;4.85;1.20;;;20.90;99.90;;;;;;5034349;28;20193;-76
2023/09/21 03:46:23;;;;;;;7.50;1.50;;;20.80;99.90;;;;;;5045958;28;20198;-76
2023/09/21 03:48:54;;;;;;;5.72;1.45;;;20.50;99.90;;;;;;5048846;28;20675;-77
2023/09/21 03:51:25;;;;;;;8.00;1.27;;;20.30;99.90;;;;;;5041107;28;20205;-76
2023/09/21 03:53:59;;;;;;;4.30;1.10;;;20.20;99.90;;;;;;5033368;28;20230;-76
2023/09/21 03:56:35;;;;;;;7.68;1.30;;;20.10;99.90;;;;;;5035962;28;20627;-76
2023/09/21 03:59:07;;;;;;;8.23;1.67;;;20.20;99.90;;;;;;5033117;28;20244;-75
2023/09/21 04:01:38;;;;;;;7.63;1.38;;;20.20;99.90;;;;;;5043831;28;20288;-74
2023/09/21 04:04:17;;;;;;;6.93;1.45;;;20.20;99.90;;;;;;5034092;28;20194;-75
2023/09/21 04:06:48;;;;;;;6.43;1.23;;;20.30;99.90;;;;;;5037594;28;20221;-76
2023/09/21 04:09:19;;;;;;;7.13;1.40;;;20.40;99.90;;;;;;5052819;28;20190;-76
2023/09/21 04:11:52;;;;;;;4.50;1.15;;;20.30;99.90;;;;;;5039819;28;20215;-74
2023/09/21 04:14:23;;;;;;;7.30;1.23;;;20.30;99.90;;;;;;5033561;28;20202;-76
2023/09/21 04:16:56;;;;;;;8.40;1.45;;;20.40;99.90;;;;;;5036769;28;20201;-72
2023/09/21 04:19:26;;;;;;;6.82;1.23;;;20.20;99.90;;;;;;5034755;28;20194;-75
2023/09/21 04:21:57;;;;;;;5.75;1.52;;;20.20;99.90;;;;;;5035809;28;20190;-74
2023/09/21 04:24:28;;;;;;;4.65;1.20;;;20.10;99.90;;;;;;5053229;28;20186;-76
2023/09/21 04:27:01;;;;;;;6.40;1.15;;;20.00;99.90;;;;;;5038930;28;20206;-75
2023/09/21 04:29:31;;;;;;;4.60;1.10;;;20.10;99.90;;;;;;5037011;28;20646;-75
2023/09/21 04:32:02;;;;;;;2.30;1.00;;;20.10;99.90;;;;;;5048315;28;20243;-74
2023/09/21 04:34:33;;;;;;;6.30;1.20;;;20.20;99.90;;;;;;5035529;28;20202;-74
2023/09/21 04:37:04;;;;;;;4.90;1.27;;;20.30;99.90;;;;;;5034851;28;20194;-75
2023/09/21 04:39:36;;;;;;;7.35;1.17;;;20.30;99.90;;;;;;5050249;28;20200;-75
2023/09/21 04:42:12;;;;;;;7.55;1.20;;;20.20;99.90;;;;;;5047611;28;20209;-76
2023/09/21 04:44:43;;;;;;;3.28;1.10;;;20.20;99.90;;;;;;5040155;28;20193;-75
2023/09/21 04:47:14;;;;;;;4.55;1.30;;;20.10;99.90;;;;;;5037069;28;20200;-75
2023/09/21 04:49:45;;;;;;;6.15;1.38;;;20.00;99.90;;;;;;5033381;28;20729;-75
2023/09/21 04:52:16;;;;;;;4.03;1.08;;;19.90;99.90;;;;;;5034015;28;20648;-74
2023/09/21 04:54:53;;;;;;;6.10;1.20;;;19.90;99.90;;;;;;5044614;28;20271;-76
2023/09/21 04:57:30;;;;;;;4.78;1.10;;;19.90;99.90;;;;;;5041079;28;20194;-76
2023/09/21 05:00:04;;;;;;;4.57;1.25;;;19.80;99.90;;;;;;5033144;28;20284;-76
2023/09/21 05:02:35;;;;;;;5.38;0.90;;;19.70;99.90;;;;;;5035398;28;20242;-75
2023/09/21 05:05:06;;;;;;;8.05;1.10;;;19.50;99.90;;;;;;5056739;28;20276;-77
2023/09/21 05:07:37;;;;;;;5.68;1.08;;;19.40;99.90;;;;;;5037942;28;20204;-76
2023/09/21 05:10:11;;;;;;;8.55;1.10;;;19.40;99.90;;;;;;5051133;28;20251;-76
2023/09/21 05:12:46;;;;;;;4.88;0.93;;;19.40;99.90;;;;;;5055205;28;20286;-75
2023/09/21 05:15:17;;;;;;;6.30;1.08;;;19.50;99.90;;;;;;5056954;28;20185;-75
2023/09/21 05:17:48;;;;;;;5.72;1.20;;;19.40;99.90;;;;;;5048684;28;20194;-76
2023/09/21 05:20:18;;;;;;;6.78;1.08;;;19.30;99.90;;;;;;5037882;28;20638;-76
2023/09/21 05:22:51;;;;;;;6.43;1.10;;;19.20;99.90;;;;;;5057022;28;20201;-77
2023/09/21 05:25:22;;;;;;;3.90;0.93;;;19.20;99.90;;;;;;5040445;28;20208;-77
2023/09/21 05:27:54;;;;;;;6.68;1.00;;;19.20;99.90;;;;;;5047407;28;20284;-76
2023/09/21 05:30:28;;;;;;;6.15;1.02;;;19.20;99.90;;;;;;5044239;28;20578;-74
2023/09/21 05:33:02;;;;;;;3.88;0.93;;;19.20;99.90;;;;;;5038921;28;20321;-76
2023/09/21 05:35:33;;;;;;;4.65;1.00;;;19.10;99.90;;;;;;5042220;28;20201;-75
2023/09/21 05:38:05;;;;;;;3.60;1.10;;;19.20;99.90;;;;;;5043724;28;20190;-76
2023/09/21 05:40:36;;;;;;;6.05;1.20;;;19.30;99.90;;;;;;5036489;28;20202;-76
2023/09/21 05:43:09;;;;;;;5.35;1.42;;;19.50;99.90;;;;;;5036132;28;20190;-75
2023/09/21 05:45:40;;;;;;;5.13;0.90;;;19.40;99.90;;;;;;5036659;28;20197;-77
2023/09/21 05:48:15;;;;;;;5.32;1.00;;;19.40;99.90;;;;;;5040581;28;20273;-75
2023/09/21 05:50:48;;;;;;;4.70;1.00;;;19.20;99.90;;;;;;5038497;28;20247;-74
2023/09/21 05:53:20;;;;;;;6.10;1.15;;;19.00;99.90;;;;;;5037726;28;20233;-75
2023/09/21 05:55:51;;;;;;;6.05;1.10;;;18.90;99.90;;;;;;5036606;28;20229;-74
2023/09/21 05:58:25;;;;;;;8.85;1.23;;;18.90;99.90;;;;;;5050669;28;20198;-75
2023/09/21 06:00:56;;;;;;;5.75;1.23;;;18.90;99.90;;;;;;5047214;28;20195;-75
2023/09/21 06:03:27;;;;;;;6.43;1.17;;;18.90;99.90;;;;;;5044846;28;20194;-74
2023/09/21 06:05:58;;;;;;;3.53;0.93;;;18.80;99.90;;;;;;5055101;28;20248;-75
2023/09/21 06:08:29;;;;;;;8.52;1.10;;;18.80;99.90;;;;;;5051917;28;20642;-75
2023/09/21 06:11:02;;;;;;;6.72;1.45;;;18.70;99.90;;;;;;5050217;28;20550;-75
2023/09/21 06:13:36;;;;;;;7.65;1.15;;;18.70;99.90;;;;;;5035904;28;20267;-74
2023/09/21 06:16:08;;;;;;;5.95;1.27;;;18.60;99.90;;;;;;5035998;28;20187;-76
2023/09/21 06:18:39;;;;;;;8.75;1.35;;;18.50;99.90;;;;;;5036035;28;20198;-75
2023/09/21 06:21:10;;;;;;;5.72;1.20;;;18.40;99.90;;;;;;5039794;28;20666;-76
2023/09/21 06:23:41;;;;;;;10.00;1.38;;;18.30;99.90;;;;;;5040633;28;20202;-76
2023/09/21 06:26:16;;;;;;;7.72;1.02;;;18.30;99.90;;;;;;5036851;28;20198;-78
2023/09/21 06:28:49;;;;;;;8.50;1.42;;;18.20;99.90;;;;;;5042209;28;20551;-74
2023/09/21 06:31:21;;;;;;;8.15;1.00;;;18.20;99.90;;;;;;5055677;28;20251;-76
2023/09/21 06:33:53;;;;;;;6.78;1.20;;;18.20;99.90;;;;;;5040615;28;20225;-75
2023/09/21 06:36:24;;;;;;;8.70;1.42;;;18.20;99.90;;;;;;5038763;28;20202;-74
2023/09/21 06:38:55;;;;;;;8.10;1.40;;;18.20;99.90;;;;;;5055164;28;20285;-76
2023/09/21 06:41:26;;;;;;;7.18;1.30;;;18.10;99.90;;;;;;5052062;28;20229;-76
2023/09/21 06:43:58;;;;;;;8.85;1.10;;;18.00;99.90;;;;;;5044658;28;20216;-79
2023/09/21 06:46:29;;;;;;;5.18;1.08;;;17.90;99.90;;;;;;5053627;28;20200;-75
2023/09/21 06:49:02;;;;;;;4.88;1.02;;;17.90;99.90;;;;;;5054263;28;20564;-74
2023/09/21 06:51:32;;;;;;;7.95;1.42;;;17.90;99.90;;;;;;5045447;28;20277;-75
2023/09/21 06:54:03;;;;;;;10.63;1.40;;;17.80;99.90;;;;;;5039244;28;20317;-77
2023/09/21 06:56:34;;;;;;;7.20;1.20;;;17.80;99.90;;;;;;5049173;28;20205;-75
2023/09/21 06:59:07;;;;;;;6.45;1.52;;;17.70;99.90;;;;;;5036346;28;20200;-76
2023/09/21 07:01:39;;;;;;;5.35;1.02;;;17.60;99.90;;;;;;5036873;28;20572;-77
2023/09/21 07:04:10;;;;;;;3.75;0.98;;;17.50;99.90;;;;;;5042835;28;20198;-75
2023/09/21 07:06:41;;;;;;;5.22;1.17;;;17.40;99.90;;;;;;5041458;28;20240;-76
2023/09/21 07:09:13;;;;;;;4.55;1.10;;;17.40;99.90;;;;;;5039173;28;20194;-76
2023/09/21 07:11:44;;;;;;;7.75;1.17;;;17.20;99.90;;;;;;5046703;28;20224;-76
2023/09/21 07:14:17;;;;;;;7.05;1.20;;;17.20;99.90;;;;;;5046456;28;20221;-76
2023/09/21 07:16:48;;;;;;;4.47;1.30;;;17.20;99.90;;;;;;5048076;28;20205;-76
2023/09/21 07:19:19;;;;;;;8.10;1.33;;;17.20;99.90;;;;;;5054639;28;20276;-76
2023/09/21 07:21:50;;;;;;;8.18;1.42;;;17.20;99.90;;;;;;5052178;28;20199;-76
2023/09/21 07:24:21;;;;;;;6.35;1.17;;;17.20;99.90;;;;;;5045331;28;20247;-77
2023/09/21 07:26:53;;;;;;;6.50;1.40;;;17.10;99.90;;;;;;5052843;28;20202;-76
2023/09/21 07:29:26;;;;;;;5.93;0.95;;;17.10;99.90;;;;;;5051283;28;20229;-75
2023/09/21 07:31:58;;;;;;;5.43;1.20;;;17.10;99.90;;;;;;5035188;28;20704;-76
2023/09/21 07:34:29;;;;;;;8.48;1.80;;;17.10;99.90;;;;;;5037601;28;20677;-76
2023/09/21 07:37:00;;;;;;;7.13;1.15;;;17.10;99.90;;;;;;5052551;28;20197;-77
2023/09/21 07:39:31;;;;;;;4.93;1.05;;;17.20;99.90;;;;;;5049826;28;20292;-76
2023/09/21 07:42:04;;;;;;;5.85;1.67;;;17.20;99.90;;;;;;5053213;28;20228;-76
2023/09/21 07:44:37;;;;;;;8.07;1.35;;;17.20;99.90;;;;;;5051273;28;20281;-77
2023/09/21 07:47:08;;;;;;;6.32;1.30;;;17.20;99.90;;;;;;5045366;28;20209;-76
2023/09/21 07:49:38;;;;;;;8.55;1.25;;;17.20;99.90;;;;;;5054421;28;20202;-76
2023/09/21 07:52:09;;;;;;;6.18;1.15;;;17.20;99.90;;;;;;5045039;28;20604;-76
2023/09/21 07:54:40;;;;;;;7.00;1.15;;;17.20;99.90;;;;;;5041154;28;20712;-76
2023/09/21 07:57:11;;;;;;;4.95;1.00;;;17.20;99.90;;;;;;5040172;28;20204;-76
2023/09/21 07:59:44;;;;;;;4.47;1.17;;;17.20;99.90;;;;;;5033615;28;20576;-77
2023/09/21 08:02:14;;;;;;;6.70;1.35;;;17.20;99.90;;;;;;5035705;28;20210;-76
2023/09/21 08:04:46;;;;;;;3.45;1.00;;;17.10;99.90;;;;;;5053886;28;20198;-76
2023/09/21 08:07:23;;;;;;;5.38;1.02;;;17.10;99.90;;;;;;5052291;28;20233;-75
2023/09/21 08:09:54;;;;;;;7.78;1.00;;;17.10;99.90;;;;;;5051142;28;20193;-77
2023/09/21 08:12:25;;;;;;;4.03;0.85;;;17.10;99.90;;;;;;5052640;28;20284;-75
2023/09/21 08:15:01;;;;;;;6.65;1.45;;;17.10;99.90;;;;;;5046011;28;20225;-77
2023/09/21 08:17:32;;;;;;;6.20;1.52;;;17.10;99.90;;;;;;5043769;28;20198;-75
2023/09/21 08:20:04;;;;;;;7.13;1.67;;;17.10;99.90;;;;;;5038498;28;20675;-75
2023/09/21 08:22:35;;;;;;;8.88;1.33;;;17.10;99.90;;;;;;5043716;28;20197;-76
2023/09/21 08:25:06;;;;;;;6.35;1.50;;;17.00;99.90;;;;;;5042862;28;20284;-76
2023/09/21 08:27:39;;;;;;;4.93;1.20;;;17.00;99.90;;;;;;5043837;28;20210;-76
2023/09/21 08:30:12;;;;;;;7.05;1.30;;;17.00;99.90;;;;;;5045750;28;20228;-76
2023/09/21 08:32:43;;;;;;;4.15;1.20;;;17.00;99.90;;;;;;5045310;28;20193;-76
2023/09/21 08:35:16;;;;;;;8.35;1.50;;;17.00;99.90;;;;;;5052907;28;20630;-76
2023/09/21 08:37:48;;;;;;;6.15;1.40;;;17.00;99.90;;;;;;5047296;28;20197;-76
2023/09/21 08:40:18;;;;;;;5.97;1.50;;;17.00;99.90;;;;;;5036258;28;20209;-76
2023/09/21 08:42:52;;;;;;;6.53;1.30;;;17.00;99.90;;;;;;5049321;28;20206;-75
2023/09/21 08:45:25;;;;;;;6.90;1.30;;;17.00;99.90;;;;;;5052728;28;20193;-75
2023/09/21 08:47:58;;;;;;;7.30;1.45;;;17.00;99.90;;;;;;5052967;28;20661;-77
2023/09/21 08:50:30;;;;;;;7.45;1.60;;;17.00;99.90;;;;;;5042279;28;20205;-75
2023/09/21 08:53:02;;;;;;;9.20;1.52;;;17.00;99.90;;;;;;5046972;28;20235;-76
2023/09/21 08:55:33;;;;;;;8.35;1.77;;;17.00;99.90;;;;;;5048447;28;20205;-77
2023/09/21 08:58:05;;;;;;;5.63;1.27;;;17.00;99.90;;;;;;5036110;28;20641;-76
2023/09/21 09:00:40;;;;;;;5.03;1.30;;;17.00;99.90;;;;;;5032236;28;20206;-76
2023/09/21 09:03:13;;;;;;;6.43;1.30;;;17.00;99.90;;;;;;5048006;28;20210;-75
2023/09/21 09:05:44;;;;;;;5.30;1.60;;;17.00;99.90;;;;;;5049090;28;20240;-76
2023/09/21 09:08:15;;;;;;;5.57;1.15;;;17.00;99.90;;;;;;5039307;28;20615;-75
2023/09/21 09:10:46;;;;;;;5.07;1.10;;;17.00;99.90;;;;;;5050463;28;20656;-75
2023/09/21 09:13:17;;;;;;;9.75;1.67;;;17.00;99.90;;;;;;5044960;28;20596;-76
2023/09/21 09:15:50;;;;;;;6.05;1.40;;;17.00;99.90;;;;;;5039631;28;20194;-77
2023/09/21 09:18:20;;;;;;;6.47;1.35;;;17.00;99.90;;;;;;5044231;28;20209;-75
2023/09/21 09:20:51;;;;;;;6.72;1.42;;;17.00;99.90;;;;;;5041971;28;20197;-76
2023/09/21 09:23:23;;;;;;;5.03;1.40;;;17.00;99.90;;;;;;5050623;28;20216;-75
2023/09/21 09:25:55;;;;;;;8.00;1.80;;;17.00;99.90;;;;;;5044234;28;20194;-76
2023/09/21 09:28:26;;;;;;;4.82;1.52;;;17.00;99.90;;;;;;5051053;28;20292;-76
2023/09/21 09:30:59;;;;;;;5.40;1.63;;;17.00;99.90;;;;;;5050541;28;20198;-77
2023/09/21 09:33:33;;;;;;;11.15;1.80;;;17.10;99.90;;;;;;5049025;28;20224;-76
2023/09/21 09:36:04;;;;;;;6.75;1.45;;;17.10;99.90;;;;;;5034500;28;20202;-76
2023/09/21 09:38:37;;;;;;;3.42;1.45;;;17.00;99.90;;;;;;5047239;28;20202;-75
2023/09/21 09:41:11;;;;;;;3.85;1.38;;;17.00;99.90;;;;;;5049596;28;20229;-75
2023/09/21 09:43:44;;;;;;;5.32;1.30;;;17.10;99.90;;;;;;5032306;28;20662;-76
2023/09/21 09:46:17;;;;;;;6.85;1.67;;;17.10;99.90;;;;;;5045117;28;20354;-76
2023/09/21 09:48:48;;;;;;;4.90;1.38;;;17.10;99.90;;;;;;5040360;28;20198;-77
2023/09/21 09:51:24;;;;;;;7.20;1.80;;;17.10;99.90;;;;;;5045953;28;20595;-76
2023/09/21 09:53:58;;;;;;;6.57;1.45;;;17.10;99.90;;;;;;5045981;28;20213;-77
2023/09/21 09:56:29;;;;;;;5.75;1.23;;;17.10;99.90;;;;;;5054318;28;20660;-77
2023/09/21 09:59:01;;;;;;;5.10;1.30;;;17.10;99.90;;;;;;5054765;28;20209;-76
2023/09/21 10:01:36;;;;;;;6.38;1.58;;;17.10;99.90;;;;;;5041601;28;20189;-77
2023/09/21 10:04:10;;;;;;;3.95;1.20;;;17.10;99.90;;;;;;5055105;28;20193;-76
2023/09/21 10:06:42;;;;;;;6.18;1.63;;;17.10;99.90;;;;;;5043184;28;20226;-77
2023/09/21 10:09:13;;;;;;;6.43;1.40;;;17.10;99.90;;;;;;5054015;28;20681;-77
2023/09/21 10:11:47;;;;;;;5.95;1.40;;;17.00;99.90;;;;;;5053660;28;20304;-76
2023/09/21 10:14:19;;;;;;;5.70;1.70;;;17.00;99.90;;;;;;5050435;28;20221;-76
2023/09/21 10:16:59;;;;;;;5.80;1.33;;;17.00;99.90;;;;;;5045450;28;20191;-76
2023/09/21 10:19:38;;;;;;;7.75;1.42;;;17.00;99.90;;;;;;5047673;28;20193;-76
2023/09/21 10:22:26;;;;;;;11.70;1.80;;;17.00;99.90;;;;;;5045901;28;20288;-76
2023/09/21 10:24:59;;;;;;;4.80;1.27;;;17.00;99.90;;;;;;5040998;28;20203;-76
2023/09/21 10:27:31;;;;;;;5.47;1.10;;;17.00;99.90;;;;;;5054748;28;20189;-76
2023/09/21 10:30:10;;;;;;;6.32;1.20;;;17.00;99.90;;;;;;5041926;28;20225;-77
2023/09/21 10:32:53;;;;;;;7.00;1.30;;;17.00;99.90;;;;;;5044198;28;20224;-77
2023/09/21 10:35:44;;;;;;;4.28;1.00;;;16.90;99.90;;;;;;5053242;28;20217;-76
2023/09/21 10:38:18;;;;;;;7.25;1.08;;;16.90;99.90;;;;;;5048255;28;20197;-77
2023/09/21 10:40:49;;;;;;;3.33;1.05;;;16.90;99.90;;;;;;5053838;28;20541;-76
2023/09/21 10:43:47;;;;;;;7.30;1.40;;;16.90;99.90;;;;;;5042432;28;20828;-76
2023/09/21 10:46:26;;;;;;;5.95;1.17;;;16.90;99.90;;;;;;5043250;28;20212;-77
2023/09/21 10:49:18;;;;;;;8.00;1.85;;;16.90;99.90;;;;;;5042208;28;20715;-77
2023/09/21 10:51:51;;;;;;;6.35;1.30;;;16.90;99.90;;;;;;5042444;28;20226;-78
2023/09/21 10:54:23;;;;;;;7.63;1.40;;;16.90;99.90;;;;;;5051839;28;20225;-77
2023/09/21 10:56:54;;;;;;;7.38;1.70;;;16.90;99.90;;;;;;5046563;28;20198;-76
2023/09/21 10:59:25;;;;;;;4.90;1.00;;;16.90;99.90;;;;;;5050784;28;20239;-76
2023/09/21 11:01:55;;;;;;;6.35;1.40;;;16.90;99.90;;;;;;5043129;28;20573;-76
2023/09/21 11:04:28;;;;;;;7.82;1.27;;;16.90;99.90;;;;;;5046026;28;20649;-77
2023/09/21 11:06:59;;;;;;;7.68;1.30;;;16.80;99.90;;;;;;5037923;28;20262;-77
2023/09/21 11:09:31;;;;;;;6.95;1.50;;;16.30;99.90;;;;;;5043905;28;20189;-77
2023/09/21 11:12:02;;;;;;;3.55;1.10;;;16.40;99.90;;;;;;5045959;28;20562;-77
2023/09/21 11:14:33;;;;;;;6.95;1.30;;;16.30;99.90;;;;;;5049539;28;20218;-77
2023/09/21 11:17:04;;;;;;;7.93;1.40;;;16.30;99.90;;;;;;5042507;28;20202;-76
2023/09/21 11:19:37;;;;;;;6.70;1.25;;;16.20;99.90;;;;;;5042270;28;20197;-76
2023/09/21 11:22:08;;;;;;;4.25;1.10;;;16.20;99.90;;;;;;5044974;28;20201;-76
2023/09/21 11:24:40;;;;;;;5.28;1.20;;;16.20;99.90;;;;;;5038868;28;20190;-76
2023/09/21 11:27:12;;;;;;;5.85;1.25;;;16.20;99.90;;;;;;5050940;28;20194;-76
2023/09/21 11:29:43;;;;;;;5.00;1.15;;;16.20;99.90;;;;;;5054321;28;20607;-75
2023/09/21 11:32:17;;;;;;;5.20;1.20;;;16.20;99.90;;;;;;5050015;28;20287;-76
2023/09/21 11:34:53;;;;;;;4.47;1.00;;;16.20;99.90;;;;;;5034283;28;20305;-76
2023/09/21 11:37:25;;;;;;;5.38;1.10;;;16.20;99.90;;;;;;5041878;28;20192;-77
2023/09/21 11:39:57;;;;;;;4.32;1.00;;;16.20;99.90;;;;;;5044895;28;20194;-77
2023/09/21 11:42:28;;;;;;;6.03;1.05;;;16.20;99.90;;;;;;5053841;28;20559;-77
2023/09/21 11:45:03;;;;;;;4.13;1.02;;;16.30;99.90;;;;;;5041850;28;20208;-76
2023/09/21 11:47:34;;;;;;;6.07;1.10;;;16.30;99.90;;;;;;5054022;28;20239;-77
2023/09/21 11:50:10;;;;;;;6.70;1.13;;;16.30;99.90;;;;;;5043862;28;20208;-77
2023/09/21 11:52:42;;;;;;;3.88;1.00;;;16.40;99.90;;;;;;5040013;28;20257;-76
2023/09/21 11:55:16;;;;;;;4.13;0.90;;;16.40;99.90;;;;;;5038862;28;20313;-77
2023/09/21 11:57:47;;;;;;;4.55;0.90;;;16.40;99.90;;;;;;5037530;28;20193;-76
2023/09/21 12:00:38;;;;;;;8.57;1.20;;;16.40;99.90;;;;;;5054301;28;20212;-76
2023/09/21 12:03:12;;;;;;;7.38;1.33;;;16.40;99.90;;;;;;5043921;28;20206;-76
2023/09/21 12:05:45;;;;;;;6.07;1.80;;;16.40;99.90;;;;;;5044709;28;20319;-76
2023/09/21 12:08:19;;;;;;;5.05;1.30;;;16.30;99.90;;;;;;5045213;28;20198;-76
2023/09/21 12:10:52;;;;;;;9.25;1.20;;;16.30;99.90;;;;;;5045530;28;20567;-76
2023/09/21 12:13:23;;;;;;;5.93;1.33;;;16.20;99.90;;;;;;5038997;28;20716;-77
2023/09/21 12:15:55;;;;;;;9.02;1.10;;;16.20;99.90;;;;;;5032441;28;20218;-76
2023/09/21 12:18:28;;;;;;;6.53;1.10;;;16.20;99.90;;;;;;5037072;28;20190;-77
2023/09/21 12:21:00;;;;;;;9.35;1.25;;;16.10;99.90;;;;;;5047489;28;20228;-76
2023/09/21 12:23:34;;;;;;;9.05;1.27;;;16.10;99.90;;;;;;5051969;28;20192;-76
2023/09/21 12:26:05;;;;;;;5.32;1.15;;;16.10;99.90;;;;;;5033509;28;20283;-77
2023/09/21 12:28:36;;;;;;;5.85;1.17;;;16.10;99.90;;;;;;5033278;28;20202;-77
2023/09/21 12:31:07;;;;;;;6.68;1.05;;;16.10;99.90;;;;;;5033147;28;20232;-76
2023/09/21 12:33:39;;;;;;;6.75;1.23;;;16.10;99.90;;;;;;5032878;28;20193;-76
2023/09/21 12:36:12;;;;;;;3.63;1.00;;;16.10;99.90;;;;;;5033165;28;20640;-76
2023/09/21 12:38:46;;;;;;;2.58;0.90;;;16.20;99.90;;;;;;5035587;28;20202;-76
2023/09/21 12:41:17;;;;;;;3.70;0.75;;;16.20;99.90;;;;;;5047215;28;20198;-77
2023/09/21 12:43:48;;;;;;;5.63;1.20;;;16.20;99.90;;;;;;5039677;28;20564;-77
2023/09/21 12:46:19;;;;;;;5.30;0.98;;;16.20;99.90;;;;;;5048330;28;20725;-76
2023/09/21 12:48:50;;;;;;;3.75;0.85;;;16.20;99.90;;;;;;5035625;28;20198;-76
2023/09/21 12:51:23;;;;;;;4.78;0.90;;;16.10;99.90;;;;;;5032538;28;20781;-76
2023/09/21 12:53:54;;;;;;;4.72;0.95;;;16.20;99.90;;;;;;5037034;28;20201;-76
2023/09/21 12:56:25;;;;;;;5.15;1.05;;;16.20;99.90;;;;;;5045842;28;20227;-76
2023/09/21 12:58:56;;;;;;;4.30;1.00;;;16.20;99.90;;;;;;5039991;28;20284;-76
2023/09/21 13:01:28;;;;;;;4.75;1.00;;;16.20;99.90;;;;;;5052563;28;20186;-76
2023/09/21 13:03:59;;;;;;;7.78;1.42;;;16.20;99.90;;;;;;5043785;28;20190;-77
2023/09/21 13:06:32;;;;;;;6.70;1.20;;;16.20;99.90;;;;;;5051407;28;20240;-77
2023/09/21 13:09:06;;;;;;;5.38;0.90;;;16.10;99.90;;;;;;5041871;28;20564;-76
2023/09/21 13:11:39;;;;;;;4.13;0.80;;;16.10;99.90;;;;;;5033665;28;20562;-76